createdAt,value
2022-08-26T00:01:42.047Z,5.32
2022-08-26T00:06:42.492Z,4.72
2022-08-26T00:09:16.045Z,4.68
2022-08-26T00:11:44.349Z,5.00
2022-08-26T00:14:13.769Z,4.97
2022-08-26T00:16:47.738Z,5.00
2022-08-26T00:19:19.794Z,4.32
2022-08-26T00:21:48.762Z,5.20
2022-08-26T00:24:20.795Z,4.82
2022-08-26T00:26:48.622Z,5.13
2022-08-26T00:29:16.163Z,4.72
2022-08-26T00:31:45.239Z,4.88
2022-08-26T00:34:12.741Z,4.68
2022-08-26T00:36:40.893Z,4.80
2022-08-26T00:39:08.717Z,5.00
2022-08-26T00:41:38.378Z,4.60
2022-08-26T00:44:06.568Z,4.47
2022-08-26T00:46:46.441Z,4.55
2022-08-26T00:49:23.640Z,5.32
2022-08-26T00:51:53.884Z,4.90
2022-08-26T00:54:27.101Z,4.32
2022-08-26T00:57:02.427Z,4.82
2022-08-26T00:59:32.936Z,4.97
2022-08-26T01:02:02.905Z,4.90
2022-08-26T01:04:31.918Z,4.88
2022-08-26T01:06:59.093Z,4.75
2022-08-26T01:09:26.919Z,5.13
2022-08-26T01:11:57.465Z,4.50
2022-08-26T01:14:26.400Z,4.57
2022-08-26T01:16:53.064Z,4.20
2022-08-26T01:19:31.546Z,4.40
2022-08-26T01:22:08.186Z,4.47
2022-08-26T01:24:35.972Z,4.82
2022-08-26T01:27:07.685Z,4.47
2022-08-26T01:29:36.072Z,4.82
2022-08-26T01:32:05.052Z,4.60
2022-08-26T01:34:36.028Z,4.65
2022-08-26T01:37:32.530Z,4.25
2022-08-26T01:39:59.449Z,4.40
2022-08-26T01:42:27.362Z,4.88
2022-08-26T01:45:09.689Z,4.05
2022-08-26T01:47:38.074Z,4.50
2022-08-26T01:50:27.820Z,4.68
2022-08-26T01:52:58.952Z,4.47
2022-08-26T01:55:32.870Z,4.30
2022-08-26T01:58:06.120Z,4.07
2022-08-26T02:00:35.217Z,4.25
2022-08-26T02:03:21.496Z,4.22
2022-08-26T02:05:53.684Z,4.28
2022-08-26T02:08:45.084Z,4.18
2022-08-26T02:11:12.737Z,4.50
2022-08-26T02:13:48.176Z,4.50
2022-08-26T02:16:20.758Z,4.07
2022-08-26T02:18:48.832Z,4.10
2022-08-26T02:21:16.910Z,4.22
2022-08-26T02:23:44.158Z,4.63
2022-08-26T02:26:17.962Z,4.15
2022-08-26T02:29:07.578Z,4.10
2022-08-26T02:31:34.577Z,4.30
2022-08-26T02:34:16.170Z,4.07
2022-08-26T02:36:42.905Z,4.33
2022-08-26T02:39:09.965Z,3.97
2022-08-26T02:41:44.951Z,4.25
2022-08-26T02:44:12.166Z,4.43
2022-08-26T02:46:39.387Z,4.32
2022-08-26T02:49:06.988Z,4.55
2022-08-26T02:51:33.878Z,4.43
2022-08-26T02:54:00.704Z,4.28
2022-08-26T02:56:29.251Z,4.40
2022-08-26T02:58:56.379Z,3.97
2022-08-26T03:01:26.198Z,3.78
2022-08-26T03:03:53.797Z,4.50
2022-08-26T03:06:20.943Z,4.40
2022-08-26T03:08:48.418Z,4.22
2022-08-26T03:11:15.397Z,4.28
2022-08-26T03:13:42.522Z,4.18
2022-08-26T03:16:09.200Z,4.15
2022-08-26T03:18:36.126Z,4.07
2022-08-26T03:21:07.924Z,4.25
2022-08-26T03:23:35.205Z,3.88
2022-08-26T03:26:01.930Z,4.18
2022-08-26T03:28:28.903Z,3.67
2022-08-26T03:30:56.928Z,4.30
2022-08-26T03:33:25.487Z,4.10
2022-08-26T03:35:52.988Z,4.15
2022-08-26T03:38:22.144Z,4.25
2022-08-26T03:40:49.005Z,4.03
2022-08-26T03:43:18.161Z,4.10
2022-08-26T03:45:45.164Z,4.25
2022-08-26T03:48:12.849Z,3.83
2022-08-26T03:50:39.553Z,4.15
2022-08-26T03:53:07.438Z,4.10
2022-08-26T03:55:39.954Z,4.43
2022-08-26T03:58:06.637Z,4.32
2022-08-26T04:00:33.650Z,4.18
2022-08-26T04:03:01.174Z,3.97
2022-08-26T04:05:28.377Z,4.25
2022-08-26T04:07:55.078Z,3.78
2022-08-26T04:10:28.595Z,3.75
2022-08-26T04:12:56.715Z,3.80
2022-08-26T04:15:26.906Z,4.20
2022-08-26T04:17:53.888Z,4.35
2022-08-26T04:20:22.549Z,4.15
2022-08-26T04:22:49.505Z,4.20
2022-08-26T04:25:16.810Z,4.40
2022-08-26T04:27:43.470Z,4.15
2022-08-26T04:30:11.231Z,4.13
2022-08-26T04:32:38.562Z,4.45
2022-08-26T04:35:06.616Z,3.92
2022-08-26T04:37:33.481Z,4.30
2022-08-26T04:40:00.238Z,3.90
2022-08-26T04:42:27.111Z,4.22
2022-08-26T04:44:53.764Z,4.00
2022-08-26T04:47:20.446Z,4.32
2022-08-26T04:49:47.694Z,4.18
2022-08-26T04:52:14.443Z,4.07
2022-08-26T04:54:42.820Z,3.85
2022-08-26T04:57:10.484Z,3.92
2022-08-26T04:59:39.460Z,4.05
2022-08-26T05:02:06.805Z,3.88
2022-08-26T05:04:33.564Z,7.25
2022-08-26T05:07:02.464Z,7.78
2022-08-26T05:09:30.480Z,8.85
2022-08-26T05:11:57.309Z,8.57
2022-08-26T05:14:24.086Z,8.10
2022-08-26T05:16:51.340Z,8.35
2022-08-26T05:19:19.229Z,8.85
2022-08-26T05:21:47.670Z,8.43
2022-08-26T05:24:14.912Z,8.77
2022-08-26T05:26:41.564Z,8.63
2022-08-26T05:29:11.283Z,9.05
2022-08-26T05:31:37.976Z,8.70
2022-08-26T05:34:04.868Z,8.48
2022-08-26T05:36:33.891Z,7.57
2022-08-26T05:39:02.683Z,8.43
2022-08-26T05:41:34.273Z,8.43
2022-08-26T05:44:06.144Z,8.05
2022-08-26T05:46:33.915Z,7.78
2022-08-26T05:49:01.454Z,8.32
2022-08-26T05:51:30.411Z,7.10
2022-08-26T05:53:58.303Z,7.85
2022-08-26T05:56:27.296Z,8.20
2022-08-26T05:58:55.863Z,7.97
2022-08-26T06:01:26.166Z,7.35
2022-08-26T06:03:55.068Z,7.22
2022-08-26T06:06:27.246Z,7.38
2022-08-26T06:08:55.776Z,7.28
2022-08-26T06:11:25.468Z,6.82
2022-08-26T06:13:54.415Z,7.18
2022-08-26T06:16:23.451Z,7.10
2022-08-26T06:18:53.109Z,6.70
2022-08-26T06:21:21.561Z,7.65
2022-08-26T06:24:10.010Z,7.25
2022-08-26T06:26:37.623Z,6.88
2022-08-26T06:29:05.770Z,7.38
2022-08-26T06:31:35.081Z,7.07
2022-08-26T06:34:07.270Z,6.47
2022-08-26T06:36:37.850Z,6.93
2022-08-26T06:39:10.757Z,6.60
2022-08-26T06:41:43.276Z,6.65
2022-08-26T06:44:11.212Z,6.45
2022-08-26T06:46:38.449Z,7.18
2022-08-26T06:49:05.516Z,6.53
2022-08-26T06:51:35.312Z,6.75
2022-08-26T06:54:04.864Z,6.90
2022-08-26T06:56:37.721Z,7.13
2022-08-26T06:59:07.249Z,6.28
2022-08-26T07:01:38.385Z,6.30
2022-08-26T07:04:10.558Z,6.35
2022-08-26T07:06:40.476Z,6.32
2022-08-26T07:09:09.990Z,6.22
2022-08-26T07:11:38.641Z,6.55
2022-08-26T07:14:06.491Z,6.28
2022-08-26T07:16:33.967Z,6.13
2022-08-26T07:19:03.478Z,6.65
2022-08-26T07:21:40.187Z,6.43
2022-08-26T07:24:07.248Z,6.18
2022-08-26T07:26:33.887Z,6.43
2022-08-26T07:29:01.941Z,6.10
2022-08-26T07:31:39.223Z,6.03
2022-08-26T07:34:09.208Z,6.13
2022-08-26T07:36:36.494Z,5.82
2022-08-26T07:39:04.018Z,6.07
2022-08-26T07:41:30.707Z,5.57
2022-08-26T07:43:58.599Z,6.40
2022-08-26T07:46:27.147Z,5.38
2022-08-26T07:48:57.216Z,6.25
2022-08-26T07:51:24.971Z,6.15
2022-08-26T07:53:53.175Z,6.03
2022-08-26T07:56:21.652Z,5.97
2022-08-26T07:58:51.818Z,5.78
2022-08-26T08:01:24.520Z,5.75
2022-08-26T08:03:54.083Z,6.10
2022-08-26T08:06:22.800Z,5.47
2022-08-26T08:08:54.286Z,5.40
2022-08-26T08:11:21.420Z,5.70
2022-08-26T08:13:52.330Z,5.53
2022-08-26T08:16:24.661Z,5.50
2022-08-26T08:18:51.408Z,5.65
2022-08-26T08:21:21.134Z,5.45
2022-08-26T08:23:49.332Z,4.95
2022-08-26T08:26:16.897Z,5.75
2022-08-26T08:28:43.628Z,5.70
2022-08-26T08:31:52.134Z,5.53
2022-08-26T08:34:08.862Z,5.90
2022-08-26T08:36:36.164Z,5.47
2022-08-26T08:39:03.388Z,5.38
2022-08-26T08:41:36.128Z,5.15
2022-08-26T08:44:03.783Z,5.13
2022-08-26T08:46:31.216Z,5.15
2022-08-26T08:48:59.842Z,5.57
2022-08-26T08:51:30.141Z,5.00
2022-08-26T08:53:57.472Z,5.10
2022-08-26T08:56:53.646Z,5.63
2022-08-26T08:59:24.058Z,5.30
2022-08-26T09:02:19.820Z,5.13
2022-08-26T09:05:25.898Z,5.22
2022-08-26T09:07:58.925Z,5.15
2022-08-26T09:10:46.043Z,4.97
2022-08-26T09:13:25.100Z,4.93
2022-08-26T09:16:10.141Z,5.47
2022-08-26T09:19:11.014Z,4.97
2022-08-26T09:21:37.859Z,5.47
2022-08-26T09:24:06.968Z,4.57
2022-08-26T09:26:39.381Z,5.10
2022-08-26T09:29:14.315Z,4.93
2022-08-26T09:31:41.409Z,4.90
2022-08-26T09:34:13.257Z,4.88
2022-08-26T09:36:51.629Z,4.78
2022-08-26T09:39:28.335Z,5.15
2022-08-26T09:42:25.485Z,4.82
2022-08-26T09:45:06.118Z,4.63
2022-08-26T09:47:53.992Z,5.18
2022-08-26T09:50:52.928Z,4.80
2022-08-26T09:53:28.687Z,4.60
2022-08-26T09:56:25.394Z,4.70
2022-08-26T09:58:52.976Z,4.95
2022-08-26T10:01:36.119Z,4.68
2022-08-26T10:04:23.698Z,5.15
2022-08-26T10:07:01.298Z,4.80
2022-08-26T10:09:33.144Z,4.63
2022-08-26T10:14:51.865Z,4.65
2022-08-26T10:17:42.778Z,4.43
2022-08-26T10:20:23.401Z,5.00
2022-08-26T10:22:58.555Z,4.65
2022-08-26T10:25:31.383Z,4.70
2022-08-26T10:28:11.884Z,4.55
2022-08-26T10:30:45.580Z,4.45
2022-08-26T10:33:15.403Z,4.60
2022-08-26T10:35:57.465Z,4.63
2022-08-26T10:38:34.689Z,4.75
2022-08-26T10:41:01.307Z,4.20
2022-08-26T10:43:33.640Z,4.63
2022-08-26T10:46:14.713Z,4.03
2022-08-26T10:48:57.545Z,4.90
2022-08-26T10:51:35.409Z,4.85
2022-08-26T10:54:09.194Z,4.47
2022-08-26T10:56:53.369Z,4.38
2022-08-26T10:59:44.771Z,4.38
2022-08-26T11:02:16.141Z,4.18
2022-08-26T11:04:49.474Z,4.90
2022-08-26T11:07:36.588Z,4.40
2022-08-26T11:10:06.667Z,4.65
2022-08-26T11:12:36.312Z,4.20
2022-08-26T11:15:11.819Z,4.53
2022-08-26T11:17:46.186Z,4.15
2022-08-26T11:20:22.140Z,4.10
2022-08-26T11:22:51.831Z,4.60
2022-08-26T11:25:30.052Z,4.45
2022-08-26T11:28:00.885Z,4.03
2022-08-26T11:30:36.615Z,4.30
2022-08-26T11:33:03.387Z,4.40
2022-08-26T11:35:34.412Z,4.28
2022-08-26T11:38:25.716Z,4.18
2022-08-26T11:41:07.140Z,4.07
2022-08-26T11:43:34.235Z,4.07
2022-08-26T11:46:10.596Z,4.05
2022-08-26T11:48:42.931Z,4.20
2022-08-26T11:51:24.104Z,4.10
2022-08-26T11:53:51.147Z,3.97
2022-08-26T11:56:31.729Z,3.97
2022-08-26T11:59:02.163Z,4.22
2022-08-26T12:01:35.624Z,3.97
2022-08-26T12:04:13.683Z,4.30
2022-08-26T12:06:47.530Z,4.13
2022-08-26T12:09:29.380Z,4.15
2022-08-26T12:12:16.594Z,3.67
2022-08-26T12:14:44.163Z,4.22
2022-08-26T12:17:19.393Z,4.18
2022-08-26T12:19:49.117Z,3.90
2022-08-26T12:22:38.732Z,4.05
2022-08-26T12:25:11.319Z,3.85
2022-08-26T12:27:41.963Z,4.13
2022-08-26T12:30:14.109Z,3.70
2022-08-26T12:32:57.271Z,4.15
2022-08-26T12:35:26.715Z,3.58
2022-08-26T12:37:54.491Z,3.88
2022-08-26T12:40:43.408Z,3.85
2022-08-26T12:43:11.826Z,3.70
2022-08-26T12:45:44.001Z,3.63
2022-08-26T12:48:13.409Z,4.30
2022-08-26T12:50:47.559Z,3.83
2022-08-26T12:53:23.043Z,3.65
2022-08-26T12:56:00.117Z,3.70
2022-08-26T12:58:39.781Z,3.90
2022-08-26T13:01:06.693Z,3.78
2022-08-26T13:03:37.374Z,3.67
2022-08-26T13:06:26.177Z,3.65
2022-08-26T13:09:23.391Z,3.92
2022-08-26T13:11:49.979Z,3.45
2022-08-26T13:14:23.834Z,4.10
2022-08-26T13:16:52.212Z,3.67
2022-08-26T13:19:25.370Z,3.53
2022-08-26T13:21:55.237Z,4.10
2022-08-26T13:24:43.392Z,3.75
2022-08-26T13:27:13.605Z,3.85
2022-08-26T18:18:10.718Z,3.65
2022-08-26T18:20:39.067Z,4.15
2022-08-26T18:23:06.063Z,4.30
2022-08-26T18:25:33.273Z,4.10
2022-08-26T18:28:00.586Z,3.40
2022-08-26T18:30:27.245Z,3.90
2022-08-26T18:32:53.907Z,4.07
2022-08-26T18:35:21.431Z,3.75
2022-08-26T18:37:48.304Z,3.95
2022-08-26T18:40:16.304Z,3.75
2022-08-26T18:42:43.897Z,4.13
2022-08-26T18:45:13.365Z,4.10
2022-08-26T18:47:43.384Z,3.80
2022-08-26T18:50:11.002Z,3.42
2022-08-26T18:52:37.963Z,3.47
2022-08-26T18:55:04.974Z,3.70
2022-08-26T18:57:31.596Z,4.00
2022-08-26T18:59:58.252Z,3.88
2022-08-26T19:02:24.947Z,3.67
2022-08-26T19:04:52.378Z,4.03
2022-08-26T19:07:20.440Z,3.90
2022-08-26T19:09:47.087Z,4.40
2022-08-26T19:12:20.503Z,4.13
2022-08-26T19:14:47.220Z,4.30
2022-08-26T19:17:13.918Z,4.32
2022-08-26T19:19:40.656Z,3.78
2022-08-26T19:22:07.638Z,3.80
2022-08-26T19:24:35.163Z,3.95
2022-08-26T19:27:02.579Z,3.70
2022-08-26T19:29:32.552Z,4.13
2022-08-26T19:31:59.567Z,3.80
2022-08-26T19:34:26.676Z,3.75
2022-08-26T19:36:54.058Z,3.90
2022-08-26T19:39:21.528Z,3.67
2022-08-26T19:41:48.325Z,4.65
2022-08-26T19:44:37.903Z,4.07
2022-08-26T19:47:06.294Z,4.45
2022-08-26T19:49:33.389Z,3.88
2022-08-26T19:52:00.490Z,3.63
2022-08-26T19:54:27.226Z,3.80
2022-08-26T19:56:54.492Z,3.78
2022-08-26T19:59:21.155Z,3.97
2022-08-26T20:01:47.778Z,3.88
2022-08-26T20:04:28.022Z,3.55
2022-08-26T20:06:57.815Z,3.30
2022-08-26T20:09:27.894Z,3.90
2022-08-26T20:11:56.775Z,3.40
2022-08-26T20:14:24.408Z,3.47
2022-08-26T20:16:51.109Z,3.40
2022-08-26T20:19:37.666Z,3.53
2022-08-26T20:22:05.071Z,3.28
2022-08-26T20:24:32.672Z,3.25
2022-08-26T20:27:00.791Z,3.97
2022-08-26T20:29:29.325Z,3.75
2022-08-26T20:31:56.502Z,3.90
2022-08-26T20:34:23.203Z,4.00
2022-08-26T20:36:50.867Z,4.28
2022-08-26T20:39:20.792Z,4.05
2022-08-26T20:41:48.116Z,3.97
2022-08-26T20:44:16.185Z,4.15
2022-08-26T20:46:43.064Z,4.07
2022-08-26T20:49:09.847Z,4.35
2022-08-26T20:51:37.356Z,5.18
2022-08-26T20:54:06.245Z,4.03
2022-08-26T20:56:32.937Z,3.85
2022-08-26T20:59:00.231Z,3.35
2022-08-26T21:01:30.692Z,3.97
2022-08-26T21:03:57.447Z,3.63
2022-08-26T21:06:24.368Z,4.00
2022-08-26T21:08:51.127Z,3.90
2022-08-26T21:11:18.513Z,4.03
2022-08-26T21:14:03.817Z,3.97
2022-08-26T21:16:32.095Z,4.20
2022-08-26T21:19:00.438Z,3.40
2022-08-26T21:21:27.907Z,4.18
2022-08-26T21:23:55.259Z,4.05
2022-08-26T21:26:22.920Z,4.28
2022-08-26T21:28:50.016Z,3.50
2022-08-26T21:31:19.516Z,3.67
2022-08-26T21:33:46.208Z,3.60
2022-08-26T21:36:14.052Z,3.53
2022-08-26T21:38:41.738Z,3.40
2022-08-26T21:41:14.567Z,3.45
2022-08-26T21:43:42.882Z,4.57
2022-08-26T21:46:14.307Z,4.50
2022-08-26T21:48:50.344Z,4.20
2022-08-26T21:51:19.987Z,4.28
2022-08-26T21:53:47.228Z,4.18
2022-08-26T21:56:16.410Z,4.78
2022-08-26T21:58:43.438Z,4.50
2022-08-26T22:01:13.085Z,4.90
2022-08-26T22:03:47.347Z,4.85
2022-08-26T22:06:15.567Z,4.75
2022-08-26T22:08:42.231Z,4.57
2022-08-26T22:11:09.522Z,4.43
2022-08-26T22:13:38.337Z,3.92
2022-08-26T22:16:06.345Z,4.35
2022-08-26T22:18:33.643Z,3.92
2022-08-26T22:21:03.047Z,4.13
2022-08-26T22:23:30.222Z,3.38
2022-08-26T22:25:57.750Z,3.83
2022-08-26T22:28:24.401Z,3.60
2022-08-26T22:30:51.040Z,3.72
2022-08-26T22:33:18.308Z,3.65
2022-08-26T22:35:48.127Z,4.22
2022-08-26T22:38:15.291Z,3.85
2022-08-26T22:40:47.322Z,3.85
2022-08-26T22:43:15.096Z,3.95
2022-08-26T22:45:45.502Z,3.67
2022-08-26T22:48:15.635Z,4.10
2022-08-26T22:50:43.528Z,3.78
2022-08-26T22:53:10.555Z,4.03
2022-08-26T22:55:37.392Z,3.38
2022-08-26T22:58:04.692Z,3.90
2022-08-26T23:00:32.610Z,3.50
2022-08-26T23:02:59.789Z,3.65
2022-08-26T23:05:26.515Z,3.90
2022-08-26T23:07:53.931Z,3.40
2022-08-26T23:10:20.730Z,3.40
2022-08-26T23:12:47.331Z,3.67
2022-08-26T23:15:14.487Z,4.10
2022-08-26T23:17:43.006Z,3.50
2022-08-26T23:20:11.701Z,3.40
2022-08-26T23:22:39.597Z,3.33
2022-08-26T23:25:08.261Z,3.60
2022-08-26T23:27:38.459Z,3.42
2022-08-26T23:30:07.715Z,3.60
2022-08-26T23:32:34.527Z,3.78
2022-08-26T23:35:01.358Z,3.45
2022-08-26T23:37:36.788Z,3.38
2022-08-26T23:40:09.783Z,3.42
2022-08-26T23:42:36.568Z,3.30
2022-08-26T23:45:08.923Z,3.50
2022-08-26T23:47:36.230Z,4.13
2022-08-26T23:50:03.915Z,3.78
2022-08-26T23:52:49.259Z,3.40
2022-08-26T23:55:16.108Z,3.25
2022-08-26T23:57:42.833Z,2.97
